Time;durP1;ratioP1;P1;durP2;ratioP2;P2;SDS_P1;SDS_P2;PMS_P1;PMS_P2;Temp;Humidity;BMP_temperature;BMP_pressure;BME280_temperature;BME280_humidity;BME280_pressure;Samples;Min_cycle;Max_cycle;Signal;HPM_P1;HPM_P2
2021/09/26 00:00:07;;;;;;;13.10;10.73;;;;;;;20.74;72.32;100838.13;5035122;28;20532;-62
2021/09/26 00:02:39;;;;;;;13.45;10.43;;;;;;;20.53;72.68;100833.06;5033790;28;20363;-62
2021/09/26 00:05:08;;;;;;;15.32;10.80;;;;;;;20.50;73.10;100830.19;5018922;28;20053;-63
2021/09/26 00:07:36;;;;;;;13.85;10.57;;;;;;;20.57;72.57;100833.91;5035557;28;20658;-58
2021/09/26 00:10:08;;;;;;;12.85;10.07;;;;;;;20.49;73.01;100831.38;5033766;28;20053;-65
2021/09/26 00:12:39;;;;;;;15.25;11.15;;;;;;;20.45;73.04;100827.72;5034210;28;20393;-62
2021/09/26 00:15:10;;;;;;;12.80;9.93;;;;;;;20.51;72.86;100837.41;5034937;28;20046;-62
2021/09/26 00:17:39;;;;;;;12.57;10.05;;;;;;;20.66;72.28;100839.25;5033666;28;20064;-62
2021/09/26 00:20:09;;;;;;;15.55;11.27;;;;;;;20.81;71.73;100829.84;5035450;28;20049;-63
2021/09/26 00:22:37;;;;;;;13.70;10.02;;;;;;;20.57;72.11;100830.31;5033639;28;20048;-61
2021/09/26 00:25:06;;;;;;;11.73;9.13;;;;;;;20.57;72.15;100833.91;5033558;28;20042;-57
2021/09/26 00:27:34;;;;;;;11.85;9.60;;;;;;;20.59;72.01;100825.13;5034623;28;20050;-58
2021/09/26 00:30:02;;;;;;;12.25;9.52;;;;;;;20.54;72.48;100839.47;5035371;28;20049;-58
2021/09/26 00:32:29;;;;;;;10.18;8.80;;;;;;;20.57;72.09;100841.50;5034259;28;20060;-57
2021/09/26 00:34:57;;;;;;;11.13;9.15;;;;;;;20.54;72.36;100847.84;5035153;28;20049;-63
2021/09/26 00:37:24;;;;;;;11.98;9.20;;;;;;;20.53;72.45;100866.63;5034368;28;20045;-62
2021/09/26 00:39:52;;;;;;;13.50;9.55;;;;;;;20.59;72.08;100873.50;5046932;28;20060;-57
2021/09/26 00:42:19;;;;;;;12.70;9.18;;;;;;;20.59;72.28;100865.13;5054326;28;20057;-62
2021/09/26 00:44:46;;;;;;;10.95;8.75;;;;;;;20.82;71.10;100867.84;5053797;28;20407;-63
2021/09/26 00:47:14;;;;;;;10.90;9.00;;;;;;;20.82;71.00;100868.66;5034536;28;20037;-56
2021/09/26 00:49:42;;;;;;;10.60;8.52;;;;;;;20.91;70.86;100862.78;5033564;28;20053;-62
2021/09/26 00:52:10;;;;;;;10.75;8.48;;;;;;;20.79;71.02;100860.19;5032942;28;20592;-56
2021/09/26 00:54:39;;;;;;;13.07;8.65;;;;;;;20.80;70.83;100854.22;5034531;28;20042;-62
2021/09/26 00:57:06;;;;;;;11.88;9.30;;;;;;;20.74;71.09;100858.56;5033614;28;20041;-63
2021/09/26 00:59:33;;;;;;;12.57;8.02;;;;;;;20.65;71.54;100848.81;5034309;28;20064;-62
2021/09/26 01:02:00;;;;;;;10.75;8.13;;;;;;;20.65;71.57;100849.63;5034929;28;20053;-58
2021/09/26 01:04:28;;;;;;;11.45;8.77;;;;;;;20.55;72.29;100844.69;5032427;28;20049;-63
2021/09/26 01:06:58;;;;;;;11.25;8.25;;;;;;;20.53;72.39;100849.03;5034462;28;20042;-58
2021/09/26 01:09:34;;;;;;;12.00;8.00;;;;;;;20.63;71.83;100856.75;5034149;28;20053;-56
2021/09/26 01:12:23;;;;;;;10.95;8.38;;;;;;;20.52;72.11;100856.59;5033538;28;20049;-58
2021/09/26 01:14:56;;;;;;;13.47;8.80;;;;;;;20.60;71.72;100858.34;5032585;28;20045;-63
2021/09/26 01:17:31;;;;;;;9.50;7.88;;;;;;;20.56;72.13;100851.88;5034475;28;20472;-56
2021/09/26 01:20:05;;;;;;;12.30;8.35;;;;;;;20.55;71.79;100853.06;5032906;28;20252;-63
2021/09/26 01:23:03;;;;;;;9.93;7.53;;;;;;;20.59;71.64;100858.72;5034863;28;20075;-61
2021/09/26 01:26:04;;;;;;;10.40;7.13;;;;;;;20.45;71.79;100859.28;5033844;28;20046;-58
2021/09/26 01:29:02;;;;;;;12.05;8.73;;;;;;;20.23;72.73;100873.31;5034611;28;20049;-62
2021/09/26 01:31:36;;;;;;;11.88;8.10;;;;;;;20.44;72.02;100874.47;5016482;28;20056;-58
2021/09/26 01:34:13;;;;;;;11.80;8.88;;;;;;;20.36;72.44;100886.75;5033366;28;20484;-63
2021/09/26 01:36:49;;;;;;;10.35;8.88;;;;;;;20.04;73.90;100902.97;5032532;28;20045;-63
2021/09/26 01:39:26;;;;;;;12.38;8.40;;;;;;;20.42;72.36;100887.22;5027261;28;20053;-59
2021/09/26 01:41:58;;;;;;;12.30;8.18;;;;;;;20.23;72.97;100884.50;5047602;28;20057;-62
2021/09/26 01:44:31;;;;;;;12.80;7.57;;;;;;;20.23;72.96;100882.53;5038589;28;20049;-63
2021/09/26 01:47:01;;;;;;;10.02;7.80;;;;;;;20.46;72.22;100879.69;5036038;28;20052;-59
2021/09/26 01:49:57;;;;;;;9.83;7.57;;;;;;;20.49;71.64;100876.97;5038707;28;20072;-63
2021/09/26 01:52:28;;;;;;;13.35;8.57;;;;;;;20.38;72.06;100869.59;5035219;28;20563;-63
2021/09/26 01:54:55;;;;;;;11.73;7.68;;;;;;;20.34;72.40;100875.13;5036825;28;20057;-58
2021/09/26 01:57:24;;;;;;;9.43;7.30;;;;;;;20.43;72.38;100874.88;5036289;28;20053;-63
2021/09/26 01:59:53;;;;;;;10.77;7.93;;;;;;;20.54;71.57;100867.44;5036562;28;20056;-57
2021/09/26 02:02:24;;;;;;;10.48;7.45;;;;;;;20.57;71.83;100869.50;5035875;28;20041;-62
2021/09/26 02:04:58;;;;;;;10.40;7.55;;;;;;;20.52;71.69;100867.00;5031848;28;20060;-63
2021/09/26 02:07:28;;;;;;;11.88;7.72;;;;;;;20.56;71.28;100868.66;5036541;28;20049;-58
2021/09/26 02:09:56;;;;;;;10.90;7.53;;;;;;;20.49;71.39;100865.75;5035852;28;20068;-58
2021/09/26 02:12:25;;;;;;;11.85;7.55;;;;;;;20.46;71.31;100880.50;5037402;28;20072;-61
2021/09/26 02:14:53;;;;;;;10.68;7.75;;;;;;;20.28;72.30;100871.03;5036934;28;20397;-62
2021/09/26 02:17:22;;;;;;;10.55;7.70;;;;;;;20.21;72.48;100882.09;5019621;28;20090;-63
2021/09/26 02:19:50;;;;;;;11.68;9.27;;;;;;;20.09;73.52;100880.28;5019148;28;20512;-56
2021/09/26 02:22:20;;;;;;;10.85;8.60;;;;;;;19.92;73.97;100891.16;5036170;28;20068;-56
2021/09/26 02:24:50;;;;;;;14.82;9.73;;;;;;;19.90;74.42;100882.31;5035691;28;20484;-62
2021/09/26 02:27:17;;;;;;;11.07;8.10;;;;;;;20.06;73.79;100878.22;5035508;28;20528;-58
2021/09/26 02:29:45;;;;;;;11.13;7.88;;;;;;;20.02;74.10;100868.16;5036313;28;20056;-63
2021/09/26 02:32:12;;;;;;;10.35;8.35;;;;;;;19.92;74.26;100868.78;5036018;28;20061;-58
2021/09/26 02:34:39;;;;;;;13.02;9.50;;;;;;;20.00;73.98;100867.72;5036814;28;20049;-62
2021/09/26 02:37:07;;;;;;;10.63;8.10;;;;;;;20.09;73.58;100873.88;5037202;28;20057;-57
2021/09/26 02:39:34;;;;;;;13.23;9.30;;;;;;;19.96;73.90;100876.03;5046786;28;20041;-62
2021/09/26 02:42:28;;;;;;;12.18;8.88;;;;;;;19.99;73.66;100871.69;5054727;28;20064;-58
2021/09/26 02:45:18;;;;;;;13.50;9.75;;;;;;;19.89;74.13;100867.53;5032388;28;20058;-59
2021/09/26 02:47:51;;;;;;;11.25;8.07;;;;;;;19.88;74.68;100863.13;5016976;28;20488;-58
2021/09/26 02:50:18;;;;;;;11.88;8.98;;;;;;;20.04;74.08;100866.59;5032482;28;20054;-57
2021/09/26 02:52:46;;;;;;;14.10;8.80;;;;;;;20.08;73.56;100861.84;5017670;28;20045;-61
2021/09/26 02:55:14;;;;;;;12.13;8.77;;;;;;;20.26;72.97;100859.38;5036888;28;20053;-57
2021/09/26 02:57:43;;;;;;;13.05;9.80;;;;;;;20.06;73.23;100864.25;5034631;28;20060;-61
2021/09/26 03:00:11;;;;;;;13.25;9.52;;;;;;;19.92;74.28;100857.59;5037614;28;20065;-58
2021/09/26 03:02:39;;;;;;;13.68;10.45;;;;;;;19.79;74.65;100848.56;5002047;28;20060;-61
2021/09/26 03:05:07;;;;;;;15.07;8.90;;;;;;;19.98;74.25;100845.72;5034875;28;20060;-58
2021/09/26 03:07:35;;;;;;;11.18;9.07;;;;;;;20.02;73.96;100838.19;5016364;28;20073;-63
2021/09/26 03:10:04;;;;;;;12.13;8.65;;;;;;;19.95;74.15;100840.06;5032173;28;20077;-57
2021/09/26 03:12:32;;;;;;;11.70;9.27;;;;;;;20.11;73.59;100843.53;4999182;28;20049;-62
2021/09/26 03:15:00;;;;;;;11.68;8.45;;;;;;;20.25;72.82;100843.00;5018759;28;20045;-57
2021/09/26 03:17:30;;;;;;;13.20;9.15;;;;;;;20.16;73.33;100843.25;5034944;28;20081;-62
2021/09/26 03:19:57;;;;;;;12.95;8.90;;;;;;;20.25;72.93;100837.38;5036493;28;20057;-59
2021/09/26 03:22:24;;;;;;;13.27;9.63;;;;;;;20.30;72.12;100829.50;5035159;28;20053;-56
2021/09/26 03:24:52;;;;;;;11.27;8.82;;;;;;;20.29;72.61;100825.09;5035425;28;20049;-59
2021/09/26 03:27:19;;;;;;;11.63;8.30;;;;;;;20.30;72.30;100817.50;5035406;28;20045;-62
2021/09/26 03:29:46;;;;;;;13.00;8.65;;;;;;;20.09;73.22;100812.34;5035783;28;20045;-57
2021/09/26 03:32:14;;;;;;;14.70;9.30;;;;;;;20.06;73.45;100822.31;5036119;28;20053;-62
2021/09/26 03:34:41;;;;;;;14.07;9.60;;;;;;;20.04;73.40;100818.25;5033878;28;20057;-57
2021/09/26 03:37:09;;;;;;;13.00;8.52;;;;;;;20.07;73.67;100821.09;5035224;28;20052;-57
2021/09/26 03:39:38;;;;;;;14.63;9.00;;;;;;;20.07;73.29;100823.91;5043825;28;20451;-58
2021/09/26 03:42:05;;;;;;;10.30;7.95;;;;;;;20.08;73.40;100828.31;5054798;28;20053;-58
2021/09/26 03:44:33;;;;;;;16.45;8.70;;;;;;;20.09;73.22;100829.94;5053841;28;20068;-54
2021/09/26 03:47:00;;;;;;;12.52;8.52;;;;;;;20.11;73.08;100821.97;5040865;28;20053;-59
2021/09/26 03:49:28;;;;;;;13.10;9.00;;;;;;;20.00;73.21;100826.56;5034593;28;20060;-63
2021/09/26 03:51:55;;;;;;;11.52;9.25;;;;;;;19.97;73.46;100812.53;5035865;28;20064;-62
2021/09/26 03:54:23;;;;;;;10.45;7.60;;;;;;;20.14;73.06;100803.63;5017845;28;20484;-56
2021/09/26 03:56:50;;;;;;;11.80;8.30;;;;;;;20.06;73.13;100813.91;5034236;28;20049;-58
2021/09/26 03:59:18;;;;;;;14.13;10.45;;;;;;;19.78;74.03;100813.44;5034051;28;20531;-62
2021/09/26 04:01:46;;;;;;;14.40;9.10;;;;;;;19.70;74.79;100814.47;5034525;28;20053;-62
2021/09/26 04:04:14;;;;;;;11.80;8.85;;;;;;;19.94;73.85;100822.50;5035785;28;20053;-62
2021/09/26 04:06:42;;;;;;;11.25;8.18;;;;;;;19.87;74.25;100822.38;5026087;28;20058;-56
2021/09/26 04:09:09;;;;;;;13.60;8.77;;;;;;;19.99;73.53;100813.78;5016933;28;20053;-62
2021/09/26 04:11:36;;;;;;;10.85;7.50;;;;;;;19.95;73.46;100807.31;5033383;28;20049;-62
2021/09/26 04:14:04;;;;;;;10.85;8.20;;;;;;;19.99;73.58;100811.00;5033813;28;20073;-62
2021/09/26 04:16:32;;;;;;;13.43;8.90;;;;;;;19.83;73.88;100798.31;5035072;28;20058;-62
2021/09/26 04:19:00;;;;;;;12.95;8.00;;;;;;;19.78;74.59;100804.22;5035450;28;20053;-56
2021/09/26 04:21:27;;;;;;;11.05;8.20;;;;;;;19.92;74.19;100796.91;5033636;28;20049;-62
2021/09/26 04:23:55;;;;;;;12.30;8.80;;;;;;;19.75;74.18;100797.38;5013668;28;20049;-62
2021/09/26 04:26:22;;;;;;;12.55;8.38;;;;;;;19.90;74.15;100802.06;5015546;28;20058;-56
2021/09/26 04:28:49;;;;;;;15.15;8.57;;;;;;;19.94;73.51;100800.13;5014920;28;20565;-62
2021/09/26 04:31:17;;;;;;;10.05;7.35;;;;;;;19.86;74.25;100791.97;5014454;28;20050;-58
2021/09/26 04:33:44;;;;;;;13.23;7.82;;;;;;;19.95;73.92;100793.34;5022247;28;20535;-56
2021/09/26 04:36:12;;;;;;;11.27;8.73;;;;;;;19.71;74.72;100781.75;5035501;28;20060;-62
2021/09/26 04:38:39;;;;;;;14.45;9.00;;;;;;;19.58;75.39;100785.91;5036397;28;20416;-61
2021/09/26 04:41:06;;;;;;;10.80;8.55;;;;;;;19.85;74.46;100779.19;5055096;28;20610;-55
2021/09/26 04:43:34;;;;;;;12.02;8.95;;;;;;;19.96;74.02;100783.75;5054302;28;20048;-57
2021/09/26 04:46:01;;;;;;;13.27;8.57;;;;;;;19.80;74.24;100779.50;5041515;28;20049;-53
2021/09/26 04:48:28;;;;;;;12.93;8.77;;;;;;;19.77;73.92;100785.84;5034706;28;20052;-58
2021/09/26 04:50:56;;;;;;;13.63;9.63;;;;;;;19.71;75.07;100790.13;5033233;28;20056;-58
2021/09/26 04:53:23;;;;;;;15.23;9.25;;;;;;;19.86;74.63;100787.19;5034906;28;20057;-57
2021/09/26 04:55:50;;;;;;;11.13;7.90;;;;;;;19.92;74.27;100784.91;5034335;28;20419;-62
2021/09/26 04:58:18;;;;;;;10.95;8.48;;;;;;;19.87;74.05;100790.81;5035192;28;20049;-57
2021/09/26 05:00:46;;;;;;;13.68;8.60;;;;;;;19.90;74.52;100795.66;5034369;28;20060;-63
2021/09/26 05:03:14;;;;;;;11.88;8.55;;;;;;;19.94;74.47;100800.13;5035015;28;20075;-62
2021/09/26 05:05:41;;;;;;;11.75;8.55;;;;;;;19.79;74.31;100806.63;5033974;28;20053;-63
2021/09/26 05:08:08;;;;;;;19.67;10.65;;;;;;;19.62;75.17;100815.53;5021127;28;20531;-63
2021/09/26 05:10:36;;;;;;;14.43;10.50;;;;;;;19.63;75.68;100819.13;5014072;28;20046;-57
2021/09/26 05:13:03;;;;;;;11.70;8.82;;;;;;;19.79;74.89;100820.63;5020456;28;20056;-57
2021/09/26 05:15:31;;;;;;;13.75;9.00;;;;;;;19.83;74.56;100826.28;5020178;28;20452;-59
2021/09/26 05:17:58;;;;;;;10.63;8.50;;;;;;;19.94;74.37;100822.50;5038626;28;20045;-63
2021/09/26 05:20:26;;;;;;;12.15;9.15;;;;;;;19.90;74.60;100818.81;5037634;28;20499;-59
2021/09/26 05:22:53;;;;;;;15.30;9.35;;;;;;;19.97;73.92;100829.31;5038386;28;20049;-63
2021/09/26 05:25:20;;;;;;;12.60;8.98;;;;;;;19.96;74.17;100842.47;5038252;28;20056;-64
2021/09/26 05:27:48;;;;;;;13.55;8.75;;;;;;;20.02;73.84;100841.00;5037976;28;20057;-63
2021/09/26 05:30:15;;;;;;;12.52;9.52;;;;;;;20.04;73.62;100858.22;5037665;28;20424;-63
2021/09/26 05:32:42;;;;;;;10.68;8.13;;;;;;;20.06;73.75;100861.44;5036987;28;20065;-63
2021/09/26 05:35:10;;;;;;;11.85;8.93;;;;;;;20.10;73.71;100861.50;5036945;28;20045;-57
2021/09/26 05:37:38;;;;;;;12.60;8.65;;;;;;;20.06;73.67;100864.25;5036587;28;20489;-63
2021/09/26 05:40:07;;;;;;;10.77;8.60;;;;;;;20.09;73.68;100863.50;5051158;28;20045;-63
2021/09/26 05:42:34;;;;;;;15.25;8.60;;;;;;;20.05;73.93;100872.97;5038758;28;20052;-63
2021/09/26 05:45:01;;;;;;;17.05;9.38;;;;;;;20.02;73.68;100866.16;5053725;28;20500;-58
2021/09/26 05:47:29;;;;;;;11.27;8.15;;;;;;;20.20;73.42;100874.06;5034969;28;20524;-63
2021/09/26 05:49:56;;;;;;;15.73;8.38;;;;;;;20.28;72.89;100864.59;5034455;28;20516;-58
2021/09/26 05:52:23;;;;;;;11.88;8.00;;;;;;;20.25;72.76;100863.38;5037098;28;20050;-59
2021/09/26 05:54:52;;;;;;;13.15;8.75;;;;;;;19.94;74.50;100869.22;5036454;28;20049;-62
2021/09/26 05:57:19;;;;;;;12.88;9.00;;;;;;;20.15;73.91;100877.97;5036680;28;20512;-63
2021/09/26 05:59:47;;;;;;;12.30;8.00;;;;;;;20.29;73.16;100888.63;5033815;28;20045;-63
2021/09/26 06:02:26;;;;;;;12.45;8.23;;;;;;;20.20;73.51;100894.47;5035508;28;20057;-63
2021/09/26 06:04:54;;;;;;;11.50;7.53;;;;;;;20.21;73.31;100906.47;5036282;28;20057;-63
2021/09/26 06:07:22;;;;;;;11.88;8.40;;;;;;;20.33;73.01;100907.06;5034167;28;20037;-62
2021/09/26 06:09:49;;;;;;;10.43;7.70;;;;;;;20.34;73.14;100899.50;5016847;28;20046;-62
2021/09/26 06:12:17;;;;;;;10.90;8.30;;;;;;;20.27;73.54;100893.78;5017158;28;20057;-62
2021/09/26 06:14:44;;;;;;;11.95;8.40;;;;;;;20.38;73.06;100895.56;5014986;28;20050;-63
2021/09/26 06:17:11;;;;;;;14.98;8.55;;;;;;;20.44;73.00;100893.25;5031899;28;20060;-62
2021/09/26 06:19:38;;;;;;;13.88;8.77;;;;;;;20.43;72.57;100895.25;5032573;28;20045;-64
2021/09/26 06:22:06;;;;;;;11.15;8.15;;;;;;;20.42;72.99;100904.00;5036461;28;20489;-63
2021/09/26 06:24:33;;;;;;;13.57;7.55;;;;;;;20.32;73.65;100904.66;5035598;28;20056;-62
2021/09/26 06:27:01;;;;;;;12.13;7.97;;;;;;;20.41;73.17;100908.00;5036102;28;20050;-63
2021/09/26 06:29:28;;;;;;;10.55;8.23;;;;;;;20.51;73.15;100905.38;5035214;28;20428;-62
2021/09/26 06:31:55;;;;;;;12.48;8.38;;;;;;;20.24;73.93;100916.91;4996498;28;1127033;-63
2021/09/26 06:34:22;;;;;;;13.75;9.60;;;;;;;19.99;75.20;100916.44;5037295;28;20488;-57
2021/09/26 06:36:50;;;;;;;17.58;9.52;;;;;;;19.91;75.52;100918.28;5018528;28;20061;-60
2021/09/26 06:39:17;;;;;;;11.88;9.02;;;;;;;19.84;76.15;100925.75;5043081;28;20045;-56
2021/09/26 06:41:44;;;;;;;11.52;8.90;;;;;;;20.21;75.14;100918.47;5055354;28;20053;-57
2021/09/26 06:44:13;;;;;;;16.00;8.55;;;;;;;20.26;74.40;100922.94;5055892;28;20140;-58
2021/09/26 06:46:41;;;;;;;13.82;9.45;;;;;;;20.35;73.98;100923.47;5055652;28;20052;-58
2021/09/26 06:49:08;;;;;;;12.60;9.45;;;;;;;20.29;74.17;100922.19;5051039;28;20511;-57
2021/09/26 06:51:35;;;;;;;13.38;9.38;;;;;;;20.30;74.04;100926.59;5036572;28;20085;-56
2021/09/26 06:54:03;;;;;;;16.00;10.13;;;;;;;20.35;73.61;100929.88;5034214;28;20053;-59
2021/09/26 06:56:30;;;;;;;16.95;9.95;;;;;;;20.17;74.41;100934.38;5032640;28;20048;-56
2021/09/26 06:58:57;;;;;;;14.77;10.10;;;;;;;19.95;76.00;100940.72;5034236;28;20065;-58
2021/09/26 07:01:24;;;;;;;12.55;10.10;;;;;;;20.17;75.16;100934.38;5035527;28;20045;-59
2021/09/26 07:03:52;;;;;;;16.00;10.50;;;;;;;19.80;76.13;100931.28;5036081;28;20497;-63
2021/09/26 07:06:19;;;;;;;15.02;9.73;;;;;;;19.36;78.51;100935.56;5035644;28;20041;-63
2021/09/26 07:08:46;;;;;;;18.55;10.02;;;;;;;19.47;79.08;100939.38;5031678;28;20096;-55
2021/09/26 07:11:14;;;;;;;14.05;9.25;;;;;;;20.07;75.59;100943.34;5035636;28;20053;-38
2021/09/26 07:13:41;;;;;;;12.20;8.75;;;;;;;19.69;77.17;100944.22;5034849;28;20060;-37
2021/09/26 07:16:09;;;;;;;11.73;8.25;;;;;;;20.13;75.84;100941.88;5034509;28;20045;-38
2021/09/26 07:18:37;;;;;;;15.60;8.40;;;;;;;20.36;74.62;100939.91;5035982;28;20476;-37
2021/09/26 07:21:04;;;;;;;14.93;8.65;;;;;;;20.68;73.15;100937.63;5017911;28;20057;-41
2021/09/26 07:23:32;;;;;;;14.45;8.48;;;;;;;20.89;71.77;100933.16;5035780;28;20045;-41
2021/09/26 07:25:59;;;;;;;14.02;8.18;;;;;;;21.19;70.64;100939.63;5032816;28;20504;-39
2021/09/26 07:28:26;;;;;;;13.40;7.25;;;;;;;21.43;69.92;100943.16;5045350;28;20053;-41
2021/09/26 07:30:53;;;;;;;11.98;7.43;;;;;;;21.61;68.78;100930.97;5040295;28;20048;-39
2021/09/26 07:33:22;;;;;;;11.82;7.60;;;;;;;21.51;69.22;100945.66;5034374;28;20129;-39
2021/09/26 07:35:49;;;;;;;23.00;9.32;;;;;;;20.92;71.80;100956.81;5033714;28;20120;-39
2021/09/26 07:38:16;;;;;;;13.95;8.98;;;;;;;20.68;72.57;100957.22;5040341;28;20518;-41
2021/09/26 07:40:44;;;;;;;11.10;8.57;;;;;;;20.73;73.10;100965.31;5039323;28;20041;-41
2021/09/26 07:43:11;;;;;;;12.57;8.85;;;;;;;20.40;74.37;100962.38;5032181;28;20109;-41
2021/09/26 07:45:55;;;;;;;15.07;10.00;;;;;;;20.44;74.30;100975.22;5030153;28;20069;-40
2021/09/26 07:48:23;;;;;;;13.15;8.73;;;;;;;20.56;74.03;100980.63;5033655;28;20049;-39
2021/09/26 07:50:51;;;;;;;16.10;8.45;;;;;;;20.87;72.10;100979.53;5033414;28;20050;-39
2021/09/26 07:53:19;;;;;;;13.43;8.15;;;;;;;21.18;70.80;100985.63;5033872;28;20065;-39
2021/09/26 07:55:49;;;;;;;17.20;10.43;;;;;;;21.37;70.32;100979.13;5026349;28;20058;-38
2021/09/26 07:58:16;;;;;;;22.90;9.77;;;;;;;21.49;69.57;100990.09;5033533;28;20053;-43
2021/09/26 08:00:44;;;;;;;16.10;8.93;;;;;;;21.61;69.04;100986.22;5007796;28;20061;-42
2021/09/26 08:03:11;;;;;;;22.23;9.80;;;;;;;21.68;69.07;100978.72;5026807;28;20464;-41
2021/09/26 08:05:39;;;;;;;25.15;9.57;;;;;;;21.70;68.74;100987.56;5034004;28;20061;-42
2021/09/26 08:08:07;;;;;;;16.63;9.02;;;;;;;21.68;68.65;100994.72;5033084;28;20056;-42
2021/09/26 08:10:34;;;;;;;17.95;8.13;;;;;;;21.78;68.88;100988.47;5031582;28;20056;-42
2021/09/26 08:13:01;;;;;;;17.45;8.57;;;;;;;21.79;68.79;100996.50;5033677;28;20045;-42
2021/09/26 08:15:29;;;;;;;14.35;7.80;;;;;;;21.88;68.07;100985.00;5030267;28;20049;-45
2021/09/26 08:17:57;;;;;;;14.82;8.00;;;;;;;21.90;68.03;100976.97;5034164;28;20064;-44
2021/09/26 08:20:25;;;;;;;17.33;8.55;;;;;;;21.92;67.70;100975.41;5034321;28;20409;-41
2021/09/26 08:22:52;;;;;;;18.05;7.90;;;;;;;21.94;68.00;100981.47;5034893;28;20052;-44
2021/09/26 08:25:22;;;;;;;19.65;7.38;;;;;;;21.93;67.29;100982.63;5033856;28;20068;-42
2021/09/26 08:27:54;;;;;;;13.70;6.82;;;;;;;21.96;67.41;100990.31;5033752;28;20057;-43
2021/09/26 08:30:22;;;;;;;14.77;7.53;;;;;;;22.05;67.00;100990.00;5031655;28;20046;-42
2021/09/26 08:32:49;;;;;;;12.98;6.70;;;;;;;22.10;66.93;100996.06;5025170;28;20049;-42
2021/09/26 08:35:17;;;;;;;14.63;6.93;;;;;;;22.08;66.77;101004.06;5033553;28;20057;-42
2021/09/26 08:37:44;;;;;;;16.13;7.28;;;;;;;22.09;66.89;101000.06;5035800;28;20057;-42
2021/09/26 08:40:12;;;;;;;14.38;7.00;;;;;;;22.06;67.00;101006.44;5048743;28;20492;-40
2021/09/26 08:42:41;;;;;;;12.30;7.72;;;;;;;22.13;66.79;101000.91;5033618;28;20072;-42
2021/09/26 08:45:12;;;;;;;15.30;7.47;;;;;;;22.18;66.52;101006.16;5033706;28;20049;-41
2021/09/26 08:47:41;;;;;;;13.57;7.13;;;;;;;22.26;66.46;100993.81;5034438;28;20054;-41
2021/09/26 08:50:11;;;;;;;11.77;7.28;;;;;;;22.29;66.04;101000.66;5033601;28;20057;-43
2021/09/26 08:52:40;;;;;;;11.55;7.70;;;;;;;22.26;65.92;101002.22;5033104;28;20045;-44
2021/09/26 08:55:09;;;;;;;15.07;8.25;;;;;;;22.30;66.05;101002.28;5025555;28;20642;-46
2021/09/26 08:57:37;;;;;;;14.68;11.27;;;;;;;22.40;65.68;100995.16;5031296;28;20064;-44
2021/09/26 09:00:10;;;;;;;15.32;9.13;;;;;;;22.46;65.85;100999.22;5028156;28;20049;-43
2021/09/26 09:02:37;;;;;;;54.85;27.77;;;;;;;22.56;66.84;100993.72;5028129;28;20045;-43
2021/09/26 09:05:06;;;;;;;45.65;22.05;;;;;;;22.61;66.88;100998.19;5022867;28;20417;-44
2021/09/26 09:07:33;;;;;;;24.88;13.85;;;;;;;22.69;66.78;101002.69;5030333;28;20068;-46
2021/09/26 09:10:01;;;;;;;15.57;9.30;;;;;;;22.68;66.19;100992.66;5024476;28;20056;-43
2021/09/26 09:12:33;;;;;;;15.60;8.45;;;;;;;22.66;66.32;100990.22;5033959;28;20061;-45
2021/09/26 09:15:06;;;;;;;14.10;8.25;;;;;;;22.64;66.15;100991.81;5034153;28;20049;-45
2021/09/26 09:17:35;;;;;;;13.43;7.80;;;;;;;22.64;65.97;100989.00;5030996;28;20060;-45
2021/09/26 09:20:20;;;;;;;13.88;7.32;;;;;;;22.66;65.62;100990.22;5028617;28;20117;-46
2021/09/26 09:23:09;;;;;;;10.68;6.40;;;;;;;22.63;65.59;100984.59;5029101;28;20046;-48
2021/09/26 09:25:37;;;;;;;11.60;7.10;;;;;;;22.64;65.38;100986.19;5033071;28;20062;-48
2021/09/26 09:28:25;;;;;;;11.88;6.93;;;;;;;22.68;65.12;100989.84;5033464;28;20061;-47
2021/09/26 09:30:59;;;;;;;10.63;6.20;;;;;;;22.74;64.79;100991.06;5033600;28;20373;-48
2021/09/26 09:33:38;;;;;;;16.60;7.15;;;;;;;22.80;64.78;100998.78;5018933;28;20053;-47
2021/09/26 09:36:21;;;;;;;11.40;5.88;;;;;;;22.75;64.48;100999.09;5033941;28;20077;-51
2021/09/26 09:38:52;;;;;;;12.60;6.35;;;;;;;22.79;64.18;101002.75;5034971;28;20048;-46
2021/09/26 09:41:40;;;;;;;12.18;5.55;;;;;;;22.83;63.93;101002.78;5033809;28;20513;-49
2021/09/26 09:44:09;;;;;;;17.25;6.47;;;;;;;22.83;63.68;101003.59;5033013;28;20053;-47
2021/09/26 09:46:43;;;;;;;10.53;6.27;;;;;;;22.93;63.36;101002.88;5032925;28;20495;-45
2021/09/26 09:49:22;;;;;;;12.00;6.07;;;;;;;22.89;63.46;101004.06;5031724;28;20802;-47
2021/09/26 09:51:54;;;;;;;10.90;6.68;;;;;;;22.87;63.49;101003.63;5033114;28;20053;-46
2021/09/26 09:54:36;;;;;;;12.95;7.03;;;;;;;22.92;63.34;101000.47;5024246;28;20057;-53
2021/09/26 09:57:15;;;;;;;10.07;6.03;;;;;;;22.98;63.10;101008.13;5027134;28;20056;-56
2021/09/26 09:59:45;;;;;;;13.68;6.85;;;;;;;22.93;63.17;101014.13;5030915;28;20072;-59
2021/09/26 10:02:13;;;;;;;15.75;6.68;;;;;;;22.90;63.46;101012.09;5033102;28;20056;-46
2021/09/26 10:04:46;;;;;;;9.02;5.70;;;;;;;22.81;63.83;101005.19;5038281;28;20611;-47
2021/09/26 10:07:17;;;;;;;13.98;6.03;;;;;;;22.76;64.06;101002.72;5035427;28;20412;-48
2021/09/26 10:09:45;;;;;;;11.07;5.93;;;;;;;22.78;63.91;101005.97;5037410;28;20054;-46
2021/09/26 10:12:24;;;;;;;12.73;8.57;;;;;;;22.85;63.34;100997.59;5036453;28;20424;-48
2021/09/26 10:14:53;;;;;;;10.82;6.78;;;;;;;22.89;63.41;101006.88;5037605;28;20057;-46
2021/09/26 10:17:20;;;;;;;14.38;6.30;;;;;;;22.84;63.54;101005.22;5035859;28;20068;-49
2021/09/26 10:19:47;;;;;;;10.18;6.30;;;;;;;22.85;63.28;101001.22;5037632;28;20064;-47
2021/09/26 10:22:18;;;;;;;10.30;6.30;;;;;;;22.87;63.57;101010.06;5035540;28;20599;-50
2021/09/26 10:24:50;;;;;;;11.90;5.82;;;;;;;22.84;63.69;101010.81;5035000;28;20053;-48
2021/09/26 10:27:30;;;;;;;13.48;6.88;;;;;;;22.80;63.64;101006.38;5016966;28;20412;-47
2021/09/26 10:30:08;;;;;;;14.45;6.93;;;;;;;22.73;64.10;101007.16;5031130;28;20053;-50
2021/09/26 10:32:37;;;;;;;12.05;6.18;;;;;;;22.79;63.90;101002.75;5035478;28;20049;-46
2021/09/26 10:35:05;;;;;;;10.30;6.03;;;;;;;22.83;63.52;101000.81;5037468;28;20053;-45
2021/09/26 10:37:32;;;;;;;13.60;7.40;;;;;;;22.91;63.37;101002.47;5036061;28;20049;-44
2021/09/26 10:40:00;;;;;;;16.05;6.63;;;;;;;22.92;63.13;100995.66;5035984;28;20056;-45
2021/09/26 10:42:34;;;;;;;13.93;6.63;;;;;;;22.95;62.99;101002.47;5035169;28;20089;-46
2021/09/26 10:45:04;;;;;;;10.60;6.60;;;;;;;23.00;63.23;100996.50;5035562;28;20053;-45
2021/09/26 10:47:33;;;;;;;18.33;6.68;;;;;;;23.05;63.00;101004.56;5035587;28;20049;-47
2021/09/26 10:50:00;;;;;;;12.43;6.65;;;;;;;23.10;62.96;100998.59;5035854;28;20049;-48
2021/09/26 10:52:46;;;;;;;9.38;6.38;;;;;;;23.16;62.75;100999.81;5036609;28;20050;-44
2021/09/26 10:55:22;;;;;;;11.52;6.80;;;;;;;23.15;62.54;100998.22;5035897;28;20045;-47
2021/09/26 10:58:07;;;;;;;12.20;6.97;;;;;;;23.22;62.44;100995.47;5036436;28;20077;-47
2021/09/26 11:00:42;;;;;;;10.13;6.20;;;;;;;23.17;62.67;100995.84;5029438;28;20037;-46
2021/09/26 11:03:34;;;;;;;12.18;6.47;;;;;;;23.16;62.71;100995.03;5036112;28;20117;-48
2021/09/26 11:06:21;;;;;;;14.65;6.80;;;;;;;23.27;62.29;100992.28;5035399;28;20054;-48
2021/09/26 11:08:52;;;;;;;12.55;6.75;;;;;;;23.26;62.06;100985.03;5035745;28;20456;-48
2021/09/26 11:11:37;;;;;;;12.90;6.43;;;;;;;23.39;61.50;100978.72;5030677;28;20044;-44
2021/09/26 11:14:06;;;;;;;16.70;6.53;;;;;;;23.32;61.93;100967.44;5036079;28;20056;-49
2021/09/26 11:16:57;;;;;;;11.45;5.85;;;;;;;23.45;69.30;100978.34;5033546;28;20503;-45
2021/09/26 11:19:28;;;;;;;20.08;7.35;;;;;;;23.39;69.34;100975.09;5034914;28;20052;-42
2021/09/26 11:22:03;;;;;;;14.15;6.13;;;;;;;23.46;67.26;100977.97;5034105;28;20080;-42
2021/09/26 11:24:40;;;;;;;14.23;6.18;;;;;;;23.41;69.10;100976.31;5034622;28;20064;-42
2021/09/26 11:27:14;;;;;;;18.88;6.93;;;;;;;23.42;67.53;100971.50;5033455;28;20057;-43
2021/09/26 11:29:41;;;;;;;18.65;6.90;;;;;;;23.49;66.44;100968.72;5035918;28;20061;-41